Terminal Aerodrome Forecast
Issued by NWS Louisville, KY

Home | Current Version | Previous Version | Text Only | Print | Product List | Glossary On
Versions: 1 2 3 4 5 6 7 8 9 10 11 12
000
FTUS43 KLMK 242300 RRA
TAFLEX
TAF
KLEX 242340Z 2500/2524 VRB03KT P6SM SKC
     FM251000 VRB03KT 4SM BR SKC
     FM251300 VRB04KT P6SM SCT045=

USA.gov is the U.S. government's official web portal to all federal, state and local government web resources and services.